sensor_id;sensor_type;location;lat;lon;timestamp;pressure;altitude;pressure_sealevel;temperature;humidity
41467;BME280;27205;53.690;19.948;2023-04-21T00:00:45;100626.09;;;8.90;50.60
41467;BME280;27205;53.690;19.948;2023-04-21T00:05:56;100624.25;;;8.81;50.80
41467;BME280;27205;53.690;19.948;2023-04-21T00:11:03;100625.46;;;8.76;51.25
41467;BME280;27205;53.690;19.948;2023-04-21T00:16:07;100621.35;;;8.72;51.10
41467;BME280;27205;53.690;19.948;2023-04-21T00:21:11;100617.73;;;8.70;51.29
41467;BME280;27205;53.690;19.948;2023-04-21T00:26:14;100613.80;;;8.65;51.36
41467;BME280;27205;53.690;19.948;2023-04-21T00:31:18;100612.91;;;8.59;51.42
41467;BME280;27205;53.690;19.948;2023-04-21T00:36:22;100609.67;;;8.50;51.72
41467;BME280;27205;53.690;19.948;2023-04-21T00:41:27;100609.69;;;8.39;51.40
41467;BME280;27205;53.690;19.948;2023-04-21T00:46:32;100607.14;;;8.30;51.32
41467;BME280;27205;53.690;19.948;2023-04-21T00:51:36;100603.73;;;8.21;51.76
41467;BME280;27205;53.690;19.948;2023-04-21T00:56:39;100605.90;;;8.14;51.90
41467;BME280;27205;53.690;19.948;2023-04-21T01:01:43;100606.11;;;8.06;52.17
41467;BME280;27205;53.690;19.948;2023-04-21T01:06:47;100604.64;;;8.01;52.79
41467;BME280;27205;53.690;19.948;2023-04-21T01:17:08;100608.61;;;7.82;53.01
41467;BME280;27205;53.690;19.948;2023-04-21T01:22:12;100600.79;;;7.71;53.07
41467;BME280;27205;53.690;19.948;2023-04-21T01:27:18;100593.69;;;7.63;53.39
41467;BME280;27205;53.690;19.948;2023-04-21T01:32:25;100592.27;;;7.60;53.61
41467;BME280;27205;53.690;19.948;2023-04-21T01:37:30;100594.82;;;7.56;53.82
41467;BME280;27205;53.690;19.948;2023-04-21T01:42:37;100592.77;;;7.50;54.96
41467;BME280;27205;53.690;19.948;2023-04-21T01:47:41;100595.05;;;7.41;55.14
41467;BME280;27205;53.690;19.948;2023-04-21T01:52:45;100593.11;;;7.32;55.16
41467;BME280;27205;53.690;19.948;2023-04-21T01:57:48;100590.94;;;7.25;54.98
41467;BME280;27205;53.690;19.948;2023-04-21T02:02:52;100587.78;;;7.18;55.07
41467;BME280;27205;53.690;19.948;2023-04-21T02:07:55;100580.51;;;7.12;55.01
41467;BME280;27205;53.690;19.948;2023-04-21T02:12:59;100581.27;;;7.03;55.24
41467;BME280;27205;53.690;19.948;2023-04-21T02:18:03;100579.31;;;6.91;55.41
41467;BME280;27205;53.690;19.948;2023-04-21T02:23:06;100577.60;;;6.82;55.01
41467;BME280;27205;53.690;19.948;2023-04-21T02:28:10;100574.95;;;6.73;55.07
41467;BME280;27205;53.690;19.948;2023-04-21T02:33:13;100570.38;;;6.64;55.16
41467;BME280;27205;53.690;19.948;2023-04-21T02:38:17;100573.23;;;6.56;55.75
41467;BME280;27205;53.690;19.948;2023-04-21T02:43:21;100573.60;;;6.51;56.08
41467;BME280;27205;53.690;19.948;2023-04-21T02:48:24;100577.42;;;6.44;56.33
41467;BME280;27205;53.690;19.948;2023-04-21T02:53:28;100577.13;;;6.37;56.68
41467;BME280;27205;53.690;19.948;2023-04-21T02:58:32;100574.59;;;6.28;56.95
41467;BME280;27205;53.690;19.948;2023-04-21T03:03:35;100570.17;;;6.20;56.49
41467;BME280;27205;53.690;19.948;2023-04-21T03:08:39;100566.75;;;6.13;56.41
41467;BME280;27205;53.690;19.948;2023-04-21T03:13:43;100569.66;;;6.08;56.53
41467;BME280;27205;53.690;19.948;2023-04-21T03:18:46;100567.27;;;6.03;56.45
41467;BME280;27205;53.690;19.948;2023-04-21T03:23:51;100562.72;;;6.02;56.53
41467;BME280;27205;53.690;19.948;2023-04-21T03:28:55;100557.89;;;6.01;56.52
41467;BME280;27205;53.690;19.948;2023-04-21T03:33:58;100558.00;;;5.99;56.81
41467;BME280;27205;53.690;19.948;2023-04-21T03:39:02;100560.69;;;5.97;57.01
41467;BME280;27205;53.690;19.948;2023-04-21T03:44:24;100561.63;;;5.97;57.10
41467;BME280;27205;53.690;19.948;2023-04-21T03:49:28;100562.55;;;5.97;57.04
41467;BME280;27205;53.690;19.948;2023-04-21T03:54:31;100557.36;;;5.99;57.25
41467;BME280;27205;53.690;19.948;2023-04-21T03:59:35;100561.88;;;6.07;57.02
41467;BME280;27205;53.690;19.948;2023-04-21T04:04:38;100569.55;;;6.17;57.17
41467;BME280;27205;53.690;19.948;2023-04-21T04:09:42;100569.19;;;6.29;57.21
41467;BME280;27205;53.690;19.948;2023-04-21T04:14:46;100571.38;;;6.39;57.32
41467;BME280;27205;53.690;19.948;2023-04-21T04:19:50;100572.59;;;6.51;57.53
41467;BME280;27205;53.690;19.948;2023-04-21T04:24:53;100574.10;;;6.59;57.58
41467;BME280;27205;53.690;19.948;2023-04-21T04:29:57;100572.21;;;6.69;57.75
41467;BME280;27205;53.690;19.948;2023-04-21T04:35:01;100575.36;;;6.77;58.18
41467;BME280;27205;53.690;19.948;2023-04-21T04:40:05;100575.69;;;6.86;58.08
41467;BME280;27205;53.690;19.948;2023-04-21T04:45:12;100570.69;;;7.01;57.98
41467;BME280;27205;53.690;19.948;2023-04-21T04:50:16;100572.23;;;7.20;57.90
41467;BME280;27205;53.690;19.948;2023-04-21T04:55:19;100568.88;;;7.42;57.65
41467;BME280;27205;53.690;19.948;2023-04-21T05:00:24;100568.60;;;7.63;57.98
41467;BME280;27205;53.690;19.948;2023-04-21T05:05:27;100575.54;;;7.83;58.08
41467;BME280;27205;53.690;19.948;2023-04-21T05:10:31;100577.84;;;8.03;57.93
41467;BME280;27205;53.690;19.948;2023-04-21T05:15:34;100587.22;;;8.23;57.56
41467;BME280;27205;53.690;19.948;2023-04-21T05:20:41;100581.10;;;8.43;57.68
41467;BME280;27205;53.690;19.948;2023-04-21T05:25:45;100579.27;;;8.65;57.57
41467;BME280;27205;53.690;19.948;2023-04-21T05:30:48;100583.20;;;8.92;57.50
41467;BME280;27205;53.690;19.948;2023-04-21T05:35:52;100582.39;;;9.13;57.16
41467;BME280;27205;53.690;19.948;2023-04-21T05:40:56;100583.33;;;9.29;56.97
41467;BME280;27205;53.690;19.948;2023-04-21T05:46:00;100586.91;;;9.41;56.83
41467;BME280;27205;53.690;19.948;2023-04-21T05:51:08;100591.11;;;9.53;56.54
41467;BME280;27205;53.690;19.948;2023-04-21T05:56:12;100588.31;;;9.73;56.48
41467;BME280;27205;53.690;19.948;2023-04-21T06:01:16;100582.54;;;9.91;56.46
41467;BME280;27205;53.690;19.948;2023-04-21T06:06:20;100585.19;;;10.13;56.33
41467;BME280;27205;53.690;19.948;2023-04-21T06:11:23;100585.06;;;10.38;56.18
41467;BME280;27205;53.690;19.948;2023-04-21T06:16:26;100577.23;;;10.59;55.88
41467;BME280;27205;53.690;19.948;2023-04-21T06:21:30;100575.42;;;10.78;56.02
41467;BME280;27205;53.690;19.948;2023-04-21T06:26:34;100572.96;;;11.03;55.44
41467;BME280;27205;53.690;19.948;2023-04-21T06:31:38;100571.90;;;11.24;55.31
41467;BME280;27205;53.690;19.948;2023-04-21T06:36:41;100571.70;;;11.47;55.18
41467;BME280;27205;53.690;19.948;2023-04-21T06:41:45;100575.80;;;11.73;54.91
41467;BME280;27205;53.690;19.948;2023-04-21T06:46:48;100578.79;;;11.97;54.73
41467;BME280;27205;53.690;19.948;2023-04-21T06:51:52;100580.09;;;12.19;54.26
41467;BME280;27205;53.690;19.948;2023-04-21T06:56:56;100575.17;;;12.39;54.11
41467;BME280;27205;53.690;19.948;2023-04-21T07:01:59;100579.48;;;12.59;53.66
41467;BME280;27205;53.690;19.948;2023-04-21T07:07:03;100580.88;;;12.84;52.77
41467;BME280;27205;53.690;19.948;2023-04-21T07:12:07;100580.58;;;13.04;52.74
41467;BME280;27205;53.690;19.948;2023-04-21T07:17:10;100580.56;;;13.27;52.30
41467;BME280;27205;53.690;19.948;2023-04-21T07:22:14;100581.91;;;13.52;51.87
41467;BME280;27205;53.690;19.948;2023-04-21T07:27:17;100577.91;;;13.76;51.42
41467;BME280;27205;53.690;19.948;2023-04-21T07:32:21;100580.27;;;14.04;51.39
41467;BME280;27205;53.690;19.948;2023-04-21T07:37:25;100580.16;;;14.29;50.72
41467;BME280;27205;53.690;19.948;2023-04-21T07:42:29;100575.08;;;14.52;50.59
41467;BME280;27205;53.690;19.948;2023-04-21T07:47:33;100574.42;;;14.73;50.07
41467;BME280;27205;53.690;19.948;2023-04-21T07:52:36;100567.91;;;14.94;49.92
41467;BME280;27205;53.690;19.948;2023-04-21T07:57:40;100572.02;;;15.15;49.70
41467;BME280;27205;53.690;19.948;2023-04-21T08:02:43;100571.28;;;15.31;48.11
41467;BME280;27205;53.690;19.948;2023-04-21T08:07:47;100562.94;;;15.56;47.95
41467;BME280;27205;53.690;19.948;2023-04-21T08:12:51;100555.52;;;15.75;46.58
41467;BME280;27205;53.690;19.948;2023-04-21T08:17:54;100552.01;;;15.93;46.35
41467;BME280;27205;53.690;19.948;2023-04-21T08:22:58;100548.16;;;16.16;45.76
41467;BME280;27205;53.690;19.948;2023-04-21T08:28:02;100552.89;;;16.42;45.43
41467;BME280;27205;53.690;19.948;2023-04-21T08:33:06;100549.08;;;16.61;45.08
41467;BME280;27205;53.690;19.948;2023-04-21T08:38:10;100544.36;;;16.76;43.92
41467;BME280;27205;53.690;19.948;2023-04-21T08:43:14;100540.80;;;16.81;41.65
41467;BME280;27205;53.690;19.948;2023-04-21T08:48:18;100534.69;;;16.92;40.55
41467;BME280;27205;53.690;19.948;2023-04-21T08:53:24;100538.02;;;17.04;40.75
41467;BME280;27205;53.690;19.948;2023-04-21T08:58:28;100535.96;;;17.06;38.69
41467;BME280;27205;53.690;19.948;2023-04-21T09:03:31;100535.98;;;17.09;37.65
41467;BME280;27205;53.690;19.948;2023-04-21T09:08:41;100529.74;;;17.07;36.33
41467;BME280;27205;53.690;19.948;2023-04-21T09:13:45;100521.39;;;17.22;35.78
41467;BME280;27205;53.690;19.948;2023-04-21T09:18:49;100517.67;;;17.34;35.41
41467;BME280;27205;53.690;19.948;2023-04-21T09:23:53;100511.64;;;17.54;36.29
41467;BME280;27205;53.690;19.948;2023-04-21T09:28:59;100507.77;;;17.68;35.07
41467;BME280;27205;53.690;19.948;2023-04-21T09:34:19;100510.80;;;17.67;34.36
41467;BME280;27205;53.690;19.948;2023-04-21T09:39:23;100506.45;;;17.68;34.00
41467;BME280;27205;53.690;19.948;2023-04-21T09:44:46;100501.89;;;17.71;34.08
41467;BME280;27205;53.690;19.948;2023-04-21T09:50:02;100499.36;;;17.82;34.05
41467;BME280;27205;53.690;19.948;2023-04-21T09:55:12;100496.63;;;17.91;33.61
41467;BME280;27205;53.690;19.948;2023-04-21T10:00:16;100494.20;;;18.05;33.44
41467;BME280;27205;53.690;19.948;2023-04-21T10:05:21;100485.42;;;18.19;33.86
41467;BME280;27205;53.690;19.948;2023-04-21T10:10:27;100481.38;;;18.34;33.52
41467;BME280;27205;53.690;19.948;2023-04-21T10:15:37;100475.56;;;18.47;33.45
41467;BME280;27205;53.690;19.948;2023-04-21T10:20:52;100468.69;;;18.59;33.09
41467;BME280;27205;53.690;19.948;2023-04-21T10:42:20;100457.17;;;19.09;32.83
41467;BME280;27205;53.690;19.948;2023-04-21T10:47:44;100457.45;;;19.17;32.02
41467;BME280;27205;53.690;19.948;2023-04-21T10:53:11;100446.14;;;19.03;31.10
41467;BME280;27205;53.690;19.948;2023-04-21T10:58:15;100448.39;;;19.05;31.28
41467;BME280;27205;53.690;19.948;2023-04-21T11:03:18;100450.10;;;19.08;31.15
41467;BME280;27205;53.690;19.948;2023-04-21T11:08:22;100443.56;;;19.07;30.85
41467;BME280;27205;53.690;19.948;2023-04-21T11:13:27;100442.64;;;19.07;30.26
41467;BME280;27205;53.690;19.948;2023-04-21T11:18:42;100438.29;;;19.06;30.24
41467;BME280;27205;53.690;19.948;2023-04-21T11:23:53;100432.80;;;19.11;30.44
41467;BME280;27205;53.690;19.948;2023-04-21T11:29:02;100422.17;;;19.15;30.13
41467;BME280;27205;53.690;19.948;2023-04-21T11:34:10;100423.71;;;19.21;29.75
41467;BME280;27205;53.690;19.948;2023-04-21T11:39:15;100422.85;;;19.22;29.47
41467;BME280;27205;53.690;19.948;2023-04-21T11:44:40;100406.13;;;19.31;30.04
41467;BME280;27205;53.690;19.948;2023-04-21T11:49:45;100406.91;;;19.42;29.66
41467;BME280;27205;53.690;19.948;2023-04-21T11:55:03;100401.32;;;19.42;29.30
41467;BME280;27205;53.690;19.948;2023-04-21T12:00:09;100392.33;;;19.50;29.53
41467;BME280;27205;53.690;19.948;2023-04-21T12:05:19;100387.59;;;19.64;29.88
41467;BME280;27205;53.690;19.948;2023-04-21T12:10:22;100377.70;;;19.90;29.77
41467;BME280;27205;53.690;19.948;2023-04-21T12:15:28;100368.30;;;20.10;29.53
41467;BME280;27205;53.690;19.948;2023-04-21T12:20:32;100363.30;;;20.13;29.31
41467;BME280;27205;53.690;19.948;2023-04-21T12:25:36;100355.27;;;20.16;29.45
41467;BME280;27205;53.690;19.948;2023-04-21T12:30:40;100357.53;;;20.45;29.56
41467;BME280;27205;53.690;19.948;2023-04-21T12:35:44;100350.58;;;20.67;29.31
41467;BME280;27205;53.690;19.948;2023-04-21T12:40:48;100347.86;;;20.84;29.21
41467;BME280;27205;53.690;19.948;2023-04-21T12:53:03;100334.81;;;21.44;28.94
41467;BME280;27205;53.690;19.948;2023-04-21T12:58:06;100337.08;;;21.55;28.66
41467;BME280;27205;53.690;19.948;2023-04-21T13:03:10;100330.52;;;21.31;27.72
41467;BME280;27205;53.690;19.948;2023-04-21T13:08:15;100326.14;;;21.27;28.25
41467;BME280;27205;53.690;19.948;2023-04-21T13:13:18;100321.82;;;21.38;27.92
41467;BME280;27205;53.690;19.948;2023-04-21T13:18:22;100319.61;;;21.14;27.83
41467;BME280;27205;53.690;19.948;2023-04-21T13:23:26;100308.54;;;21.22;27.99
41467;BME280;27205;53.690;19.948;2023-04-21T13:28:29;100310.80;;;21.21;27.42
41467;BME280;27205;53.690;19.948;2023-04-21T13:33:33;100306.98;;;21.27;27.58
41467;BME280;27205;53.690;19.948;2023-04-21T13:38:37;100300.36;;;21.39;27.40
41467;BME280;27205;53.690;19.948;2023-04-21T13:43:42;100298.10;;;21.43;27.10
41467;BME280;27205;53.690;19.948;2023-04-21T13:48:46;100293.11;;;21.48;26.64
41467;BME280;27205;53.690;19.948;2023-04-21T13:53:49;100286.27;;;21.61;26.49
41467;BME280;27205;53.690;19.948;2023-04-21T13:58:53;100274.00;;;22.05;26.40
41467;BME280;27205;53.690;19.948;2023-04-21T14:03:58;100275.27;;;22.77;26.14
41467;BME280;27205;53.690;19.948;2023-04-21T14:09:02;100273.92;;;23.83;25.69
41467;BME280;27205;53.690;19.948;2023-04-21T14:14:06;100274.58;;;26.28;23.32
41467;BME280;27205;53.690;19.948;2023-04-21T14:19:12;100274.77;;;28.46;22.62
41467;BME280;27205;53.690;19.948;2023-04-21T14:24:17;100280.38;;;29.65;21.53
41467;BME280;27205;53.690;19.948;2023-04-21T14:29:21;100278.36;;;31.29;20.93
41467;BME280;27205;53.690;19.948;2023-04-21T14:34:25;100269.88;;;32.87;20.77
41467;BME280;27205;53.690;19.948;2023-04-21T14:39:29;100267.83;;;34.34;19.96
41467;BME280;27205;53.690;19.948;2023-04-21T14:44:32;100263.33;;;34.75;19.08
41467;BME280;27205;53.690;19.948;2023-04-21T14:49:37;100258.05;;;34.43;18.14
41467;BME280;27205;53.690;19.948;2023-04-21T14:54:41;100251.77;;;33.93;17.84
41467;BME280;27205;53.690;19.948;2023-04-21T14:59:45;100243.77;;;33.93;18.21
41467;BME280;27205;53.690;19.948;2023-04-21T15:04:49;100243.96;;;33.68;17.69
41467;BME280;27205;53.690;19.948;2023-04-21T15:09:52;100231.86;;;31.81;18.30
41467;BME280;27205;53.690;19.948;2023-04-21T15:14:57;100225.33;;;30.28;18.88
41467;BME280;27205;53.690;19.948;2023-04-21T15:20:01;100217.50;;;29.54;18.98
41467;BME280;27205;53.690;19.948;2023-04-21T15:25:05;100217.95;;;30.78;18.53
41467;BME280;27205;53.690;19.948;2023-04-21T15:30:09;100212.55;;;30.58;18.50
41467;BME280;27205;53.690;19.948;2023-04-21T15:35:14;100202.34;;;28.80;18.43
41467;BME280;27205;53.690;19.948;2023-04-21T15:40:17;100194.30;;;27.11;19.05
41467;BME280;27205;53.690;19.948;2023-04-21T15:45:21;100192.41;;;27.12;19.49
41467;BME280;27205;53.690;19.948;2023-04-21T15:50:24;100193.84;;;29.27;19.01
41467;BME280;27205;53.690;19.948;2023-04-21T15:55:28;100200.13;;;32.70;18.59
41467;BME280;27205;53.690;19.948;2023-04-21T16:00:32;100207.99;;;35.16;17.65
41467;BME280;27205;53.690;19.948;2023-04-21T16:05:36;100205.67;;;36.44;16.84
41467;BME280;27205;53.690;19.948;2023-04-21T16:10:40;100203.30;;;36.28;16.42
41467;BME280;27205;53.690;19.948;2023-04-21T16:15:43;100205.02;;;35.97;16.75
41467;BME280;27205;53.690;19.948;2023-04-21T16:20:47;100197.99;;;36.02;17.18
41467;BME280;27205;53.690;19.948;2023-04-21T16:25:51;100192.14;;;35.89;16.68
41467;BME280;27205;53.690;19.948;2023-04-21T16:30:55;100190.55;;;35.05;16.18
41467;BME280;27205;53.690;19.948;2023-04-21T16:35:58;100189.36;;;34.33;16.36
41467;BME280;27205;53.690;19.948;2023-04-21T16:41:02;100186.50;;;32.68;16.82
41467;BME280;27205;53.690;19.948;2023-04-21T16:46:06;100180.14;;;30.69;17.42
41467;BME280;27205;53.690;19.948;2023-04-21T16:51:09;100181.89;;;28.46;18.66
41467;BME280;27205;53.690;19.948;2023-04-21T16:56:13;100177.25;;;27.25;19.50
41467;BME280;27205;53.690;19.948;2023-04-21T17:01:16;100163.48;;;26.66;20.08
41467;BME280;27205;53.690;19.948;2023-04-21T17:06:20;100159.36;;;26.50;20.59
41467;BME280;27205;53.690;19.948;2023-04-21T17:11:27;100159.39;;;26.32;20.85
41467;BME280;27205;53.690;19.948;2023-04-21T17:16:32;100163.40;;;25.73;21.16
41467;BME280;27205;53.690;19.948;2023-04-21T17:21:35;100162.38;;;24.72;21.82
41467;BME280;27205;53.690;19.948;2023-04-21T17:26:39;100156.45;;;23.61;22.44
41467;BME280;27205;53.690;19.948;2023-04-21T17:31:42;100157.09;;;22.33;23.06
41467;BME280;27205;53.690;19.948;2023-04-21T17:36:46;100160.71;;;21.65;23.85
41467;BME280;27205;53.690;19.948;2023-04-21T17:41:50;100161.75;;;20.98;24.49
41467;BME280;27205;53.690;19.948;2023-04-21T17:46:53;100159.58;;;20.13;25.27
41467;BME280;27205;53.690;19.948;2023-04-21T17:51:57;100155.09;;;19.26;25.74
41467;BME280;27205;53.690;19.948;2023-04-21T17:57:00;100155.17;;;18.18;26.30
41467;BME280;27205;53.690;19.948;2023-04-21T18:02:04;100156.66;;;17.35;27.06
41467;BME280;27205;53.690;19.948;2023-04-21T18:07:08;100158.07;;;16.73;28.23
41467;BME280;27205;53.690;19.948;2023-04-21T18:12:12;100161.79;;;16.18;28.67
41467;BME280;27205;53.690;19.948;2023-04-21T18:17:16;100164.04;;;15.74;29.31
41467;BME280;27205;53.690;19.948;2023-04-21T18:22:19;100162.85;;;15.38;30.09
41467;BME280;27205;53.690;19.948;2023-04-21T18:27:23;100163.09;;;15.04;29.76
41467;BME280;27205;53.690;19.948;2023-04-21T18:32:27;100165.97;;;14.76;29.97
41467;BME280;27205;53.690;19.948;2023-04-21T18:37:30;100162.67;;;14.49;30.50
41467;BME280;27205;53.690;19.948;2023-04-21T18:42:34;100164.80;;;14.24;30.84
41467;BME280;27205;53.690;19.948;2023-04-21T18:47:37;100161.27;;;14.01;30.96
41467;BME280;27205;53.690;19.948;2023-04-21T18:52:41;100154.55;;;13.82;31.21
41467;BME280;27205;53.690;19.948;2023-04-21T18:57:45;100154.63;;;13.67;31.76
41467;BME280;27205;53.690;19.948;2023-04-21T19:02:48;100154.30;;;13.48;31.98
41467;BME280;27205;53.690;19.948;2023-04-21T19:07:53;100151.75;;;13.30;32.27
41467;BME280;27205;53.690;19.948;2023-04-21T19:12:56;100154.14;;;13.17;32.37
41467;BME280;27205;53.690;19.948;2023-04-21T19:18:00;100148.11;;;13.03;32.53
41467;BME280;27205;53.690;19.948;2023-04-21T19:23:04;100150.23;;;12.86;32.54
41467;BME280;27205;53.690;19.948;2023-04-21T19:28:08;100149.89;;;12.73;32.56
41467;BME280;27205;53.690;19.948;2023-04-21T19:33:12;100147.64;;;12.62;33.39
41467;BME280;27205;53.690;19.948;2023-04-21T19:38:16;100144.39;;;12.50;33.30
41467;BME280;27205;53.690;19.948;2023-04-21T19:43:19;100144.45;;;12.38;34.04
41467;BME280;27205;53.690;19.948;2023-04-21T19:48:23;100141.09;;;12.25;33.97
41467;BME280;27205;53.690;19.948;2023-04-21T19:53:27;100141.98;;;12.13;33.68
41467;BME280;27205;53.690;19.948;2023-04-21T19:58:31;100134.31;;;11.97;33.72
41467;BME280;27205;53.690;19.948;2023-04-21T20:03:40;100131.67;;;11.84;34.33
41467;BME280;27205;53.690;19.948;2023-04-21T20:08:47;100133.59;;;11.72;34.66
41467;BME280;27205;53.690;19.948;2023-04-21T20:13:50;100128.18;;;11.60;34.54
41467;BME280;27205;53.690;19.948;2023-04-21T20:18:54;100129.95;;;11.47;34.80
41467;BME280;27205;53.690;19.948;2023-04-21T20:24:00;100129.73;;;11.36;34.77
41467;BME280;27205;53.690;19.948;2023-04-21T20:29:04;100131.26;;;11.20;34.68
41467;BME280;27205;53.690;19.948;2023-04-21T20:34:07;100130.16;;;11.07;34.93
41467;BME280;27205;53.690;19.948;2023-04-21T20:39:11;100132.29;;;10.99;34.68
41467;BME280;27205;53.690;19.948;2023-04-21T20:44:16;100135.77;;;10.91;34.72
41467;BME280;27205;53.690;19.948;2023-04-21T20:49:23;100139.83;;;10.74;34.64
41467;BME280;27205;53.690;19.948;2023-04-21T20:54:26;100137.41;;;10.59;34.93
41467;BME280;27205;53.690;19.948;2023-04-21T20:59:30;100133.39;;;10.46;34.92
41467;BME280;27205;53.690;19.948;2023-04-21T21:04:33;100131.77;;;10.30;35.10
41467;BME280;27205;53.690;19.948;2023-04-21T21:09:37;100131.82;;;10.17;35.49
41467;BME280;27205;53.690;19.948;2023-04-21T21:14:41;100134.69;;;10.06;35.74
41467;BME280;27205;53.690;19.948;2023-04-21T21:19:44;100133.73;;;9.93;35.80
41467;BME280;27205;53.690;19.948;2023-04-21T21:24:48;100136.21;;;9.82;35.93
41467;BME280;27205;53.690;19.948;2023-04-21T21:29:52;100136.29;;;9.72;36.15
41467;BME280;27205;53.690;19.948;2023-04-21T21:34:56;100138.06;;;9.64;36.62
41467;BME280;27205;53.690;19.948;2023-04-21T21:39:59;100131.33;;;9.54;36.41
41467;BME280;27205;53.690;19.948;2023-04-21T21:45:04;100129.62;;;9.45;37.09
41467;BME280;27205;53.690;19.948;2023-04-21T21:50:09;100128.79;;;9.36;37.13
41467;BME280;27205;53.690;19.948;2023-04-21T21:55:13;100124.44;;;9.26;37.68
41467;BME280;27205;53.690;19.948;2023-04-21T22:00:17;100120.09;;;9.10;37.88
41467;BME280;27205;53.690;19.948;2023-04-21T22:05:20;100118.89;;;8.97;38.56
41467;BME280;27205;53.690;19.948;2023-04-21T22:10:24;100122.20;;;8.86;38.19
41467;BME280;27205;53.690;19.948;2023-04-21T22:15:28;100122.97;;;8.73;38.58
41467;BME280;27205;53.690;19.948;2023-04-21T22:20:31;100118.69;;;8.59;38.86
41467;BME280;27205;53.690;19.948;2023-04-21T22:25:34;100120.54;;;8.45;39.58
41467;BME280;27205;53.690;19.948;2023-04-21T22:30:38;100117.51;;;8.34;39.48
41467;BME280;27205;53.690;19.948;2023-04-21T22:35:42;100114.90;;;8.25;39.82
41467;BME280;27205;53.690;19.948;2023-04-21T22:40:46;100107.91;;;8.21;39.86
41467;BME280;27205;53.690;19.948;2023-04-21T22:45:49;100109.65;;;8.16;39.60
41467;BME280;27205;53.690;19.948;2023-04-21T22:50:53;100109.96;;;8.12;39.60
41467;BME280;27205;53.690;19.948;2023-04-21T22:55:58;100101.69;;;8.06;39.98
41467;BME280;27205;53.690;19.948;2023-04-21T23:01:01;100107.27;;;7.98;40.08
41467;BME280;27205;53.690;19.948;2023-04-21T23:06:05;100099.42;;;7.90;40.33
41467;BME280;27205;53.690;19.948;2023-04-21T23:11:08;100093.70;;;7.81;40.14
41467;BME280;27205;53.690;19.948;2023-04-21T23:16:12;100091.78;;;7.72;40.09
41467;BME280;27205;53.690;19.948;2023-04-21T23:21:16;100092.85;;;7.64;40.30
41467;BME280;27205;53.690;19.948;2023-04-21T23:26:19;100093.30;;;7.54;40.69
41467;BME280;27205;53.690;19.948;2023-04-21T23:31:23;100090.09;;;7.45;41.38
41467;BME280;27205;53.690;19.948;2023-04-21T23:36:28;100087.14;;;7.38;41.57
41467;BME280;27205;53.690;19.948;2023-04-21T23:41:31;100084.55;;;7.29;41.83
41467;BME280;27205;53.690;19.948;2023-04-21T23:46:35;100080.85;;;7.18;42.04
41467;BME280;27205;53.690;19.948;2023-04-21T23:51:39;100078.05;;;7.09;42.16
41467;BME280;27205;53.690;19.948;2023-04-21T23:56:43;100075.71;;;6.95;42.80
